Time;durP1;ratioP1;P1;durP2;ratioP2;P2;SDS_P1;SDS_P2;PMS_P1;PMS_P2;Temp;Humidity;BMP_temperature;BMP_pressure;BME280_temperature;BME280_humidity;BME280_pressure;Samples;Min_cycle;Max_cycle;Signal;HPM_P1;HPM_P2
2021/12/04 00:02:05;;;;;;;0.50;0.50;;;12.40;99.90;;;;;;5052334;28;20021;-82
2021/12/04 00:04:38;;;;;;;0.30;0.30;;;12.50;99.90;;;;;;5052039;28;20029;-81
2021/12/04 00:07:06;;;;;;;28.67;1.27;;;12.50;99.90;;;;;;5053250;28;20025;-87
2021/12/04 00:09:33;;;;;;;1.30;1.10;;;12.50;99.90;;;;;;5052786;28;20515;-84
2021/12/04 00:12:01;;;;;;;0.10;0.10;;;12.50;99.90;;;;;;5052672;28;20104;-86
2021/12/04 00:14:27;;;;;;;5.80;2.05;;;12.50;99.90;;;;;;5052871;28;20095;-85
2021/12/04 00:16:54;;;;;;;0.25;0.15;;;12.50;99.90;;;;;;5051264;28;20026;-84
2021/12/04 00:19:20;;;;;;;0.80;0.35;;;12.50;99.90;;;;;;5053404;28;20491;-82
2021/12/04 00:21:46;;;;;;;0.52;0.38;;;12.50;99.90;;;;;;5054257;28;20109;-81
2021/12/04 00:24:12;;;;;;;0.40;0.40;;;12.50;99.90;;;;;;5054254;28;20057;-84
2021/12/04 00:26:38;;;;;;;0.00;0.00;;;12.40;99.90;;;;;;5054753;28;20059;-82
2021/12/04 00:29:04;;;;;;;4.10;1.67;;;12.40;99.90;;;;;;5046929;28;20112;-84
2021/12/04 00:31:30;;;;;;;0.65;0.65;;;12.40;99.90;;;;;;5033800;28;20029;-82
2021/12/04 00:33:56;;;;;;;0.63;0.38;;;12.40;99.90;;;;;;5032980;28;20377;-80
2021/12/04 00:49:53;;;;;;;0.00;0.00;;;12.40;99.90;;;;;;5036074;28;20279;-84
2021/12/04 00:52:19;;;;;;;8.30;3.00;;;12.50;99.90;;;;;;5035548;28;20021;-84
2021/12/04 00:54:46;;;;;;;0.82;0.77;;;12.40;99.90;;;;;;5036667;28;20545;-80
2021/12/04 00:57:12;;;;;;;0.55;0.55;;;12.40;99.90;;;;;;5036454;28;20370;-82
2021/12/04 00:59:38;;;;;;;0.47;0.47;;;12.40;99.90;;;;;;5052932;28;20035;-82
2021/12/04 01:02:04;;;;;;;0.22;0.22;;;12.40;99.90;;;;;;5055580;28;20021;-81
2021/12/04 01:04:30;;;;;;;0.30;0.30;;;12.40;99.90;;;;;;5054831;28;20476;-81
2021/12/04 01:06:55;;;;;;;3.30;1.15;;;12.40;99.90;;;;;;5055966;28;20028;-83
2021/12/04 01:09:24;;;;;;;1.23;1.13;;;12.40;99.90;;;;;;5055369;28;20037;-83
2021/12/04 01:11:51;;;;;;;8.43;2.17;;;12.40;99.90;;;;;;5054513;28;20064;-81
2021/12/04 01:14:19;;;;;;;2.53;1.23;;;12.40;99.90;;;;;;5055711;28;20381;-82
2021/12/04 01:16:45;;;;;;;1.10;1.02;;;12.40;99.90;;;;;;5055658;28;20021;-84
2021/12/04 01:19:14;;;;;;;0.38;0.35;;;12.30;99.90;;;;;;5055175;28;20025;-86
2021/12/04 01:21:39;;;;;;;0.63;0.30;;;12.30;99.90;;;;;;5055441;28;20021;-85
2021/12/04 01:24:05;;;;;;;4.07;1.00;;;12.30;99.90;;;;;;5055428;28;20167;-87
2021/12/04 01:26:31;;;;;;;0.00;0.00;;;12.30;99.90;;;;;;5055454;28;20554;-84
2021/12/04 01:28:56;;;;;;;0.13;0.13;;;12.20;99.90;;;;;;5050702;28;20052;-83
2021/12/04 01:31:25;;;;;;;0.15;0.05;;;12.30;99.90;;;;;;5035054;28;20403;-87
2021/12/04 01:33:51;;;;;;;0.00;0.00;;;12.30;99.90;;;;;;5035183;28;20080;-84
2021/12/04 01:36:17;;;;;;;0.00;0.00;;;12.30;99.90;;;;;;5035641;28;20057;-84
2021/12/04 01:38:43;;;;;;;0.28;0.28;;;12.30;99.90;;;;;;5035609;28;20051;-83
2021/12/04 01:41:09;;;;;;;0.30;0.30;;;12.30;99.90;;;;;;5034938;28;20033;-83
2021/12/04 01:43:35;;;;;;;0.60;0.60;;;12.30;99.90;;;;;;5035225;28;20543;-85
2021/12/04 01:46:00;;;;;;;0.75;0.45;;;12.30;99.90;;;;;;5033847;28;20021;-82
2021/12/04 01:48:26;;;;;;;0.00;0.00;;;12.30;99.90;;;;;;5035053;28;20064;-86
2021/12/04 01:50:54;;;;;;;1.98;1.55;;;12.30;99.90;;;;;;5035231;28;20100;-84
2021/12/04 01:53:20;;;;;;;0.00;0.00;;;12.30;99.90;;;;;;5032600;28;20038;-82
2021/12/04 01:55:46;;;;;;;0.75;0.75;;;12.30;99.90;;;;;;5035521;28;20028;-85
2021/12/04 01:58:13;;;;;;;8.18;2.95;;;12.30;99.90;;;;;;5041100;28;20025;-83
2021/12/04 02:00:41;;;;;;;0.43;0.43;;;12.30;99.90;;;;;;5053421;28;20391;-82
2021/12/04 02:03:09;;;;;;;1.38;1.15;;;12.40;99.90;;;;;;5054450;28;20407;-82
2021/12/04 02:05:38;;;;;;;0.30;0.30;;;12.40;99.90;;;;;;5054888;28;20021;-83
2021/12/04 02:08:05;;;;;;;5.10;2.53;;;12.40;99.90;;;;;;5053367;28;20032;-83
2021/12/04 02:10:31;;;;;;;0.25;0.22;;;12.50;99.90;;;;;;5054761;28;20131;-84
2021/12/04 02:12:56;;;;;;;0.00;0.00;;;12.50;99.90;;;;;;5054652;28;20494;-85
2021/12/04 02:15:22;;;;;;;0.68;0.52;;;12.50;99.90;;;;;;5054649;28;20025;-83
2021/12/04 02:17:49;;;;;;;1.85;1.73;;;12.40;99.90;;;;;;5054251;28;20053;-84
2021/12/04 02:20:22;;;;;;;7.97;1.17;;;12.40;99.90;;;;;;5054370;28;20434;-81
2021/12/04 02:22:49;;;;;;;0.15;0.10;;;12.40;99.90;;;;;;5054738;28;20533;-82
2021/12/04 02:25:15;;;;;;;1.42;0.73;;;12.40;99.90;;;;;;5053553;28;20021;-84
2021/12/04 02:27:42;;;;;;;0.52;0.52;;;12.40;99.90;;;;;;5054241;28;20111;-83
2021/12/04 02:30:11;;;;;;;0.00;0.00;;;12.50;99.90;;;;;;5054398;28;20071;-82
2021/12/04 02:32:38;;;;;;;0.00;0.00;;;12.40;99.90;;;;;;5054402;28;20052;-82
2021/12/04 02:35:06;;;;;;;0.20;0.20;;;12.40;99.90;;;;;;5054154;28;20029;-82
2021/12/04 02:37:33;;;;;;;0.00;0.00;;;12.40;99.90;;;;;;5054610;28;20021;-81
2021/12/04 02:39:59;;;;;;;0.00;0.00;;;12.40;99.90;;;;;;5054215;28;20017;-84
2021/12/04 02:42:29;;;;;;;0.30;0.30;;;12.40;99.90;;;;;;5054517;28;20024;-84
2021/12/04 02:44:57;;;;;;;0.47;0.43;;;12.40;99.90;;;;;;5054376;28;20025;-81
2021/12/04 02:47:23;;;;;;;0.10;0.10;;;12.30;99.90;;;;;;5054881;28;20029;-82
2021/12/04 02:49:49;;;;;;;7.55;0.63;;;12.30;99.90;;;;;;5052869;28;20025;-83
2021/12/04 02:52:16;;;;;;;0.73;0.73;;;12.30;99.90;;;;;;5052967;28;20062;-83
2021/12/04 02:54:42;;;;;;;6.88;1.55;;;12.30;99.90;;;;;;5053782;28;20021;-81
2021/12/04 02:57:11;;;;;;;0.00;0.00;;;12.30;99.90;;;;;;5054172;28;20024;-83
2021/12/04 02:59:38;;;;;;;0.30;0.28;;;12.30;99.90;;;;;;5053865;28;20016;-83
2021/12/04 03:02:26;;;;;;;0.00;0.00;;;12.20;99.90;;;;;;5052139;28;20028;-82
2021/12/04 03:04:59;;;;;;;0.20;0.20;;;12.20;99.90;;;;;;5053285;28;20047;-83
2021/12/04 03:07:25;;;;;;;1.00;0.85;;;12.20;99.90;;;;;;5033838;28;20033;-81
2021/12/04 03:09:51;;;;;;;0.00;0.00;;;12.20;99.90;;;;;;5033410;28;20091;-82
2021/12/04 03:12:19;;;;;;;0.00;0.00;;;12.20;99.90;;;;;;5033523;28;20112;-83
2021/12/04 03:14:45;;;;;;;0.43;0.43;;;12.30;99.90;;;;;;5033342;28;20025;-83
2021/12/04 03:17:14;;;;;;;0.13;0.13;;;12.30;99.90;;;;;;5033366;28;20033;-82
2021/12/04 03:19:40;;;;;;;3.53;1.45;;;12.30;99.90;;;;;;5033177;28;20044;-80
2021/12/04 03:22:07;;;;;;;1.60;0.73;;;12.30;99.90;;;;;;5033305;28;20469;-84
2021/12/04 03:24:36;;;;;;;0.45;0.45;;;12.30;99.90;;;;;;5033644;28;20374;-81
2021/12/04 03:27:02;;;;;;;0.00;0.00;;;12.30;99.90;;;;;;5033358;28;20080;-83
2021/12/04 03:29:30;;;;;;;0.00;0.00;;;12.40;99.90;;;;;;5033487;28;20481;-82
2021/12/04 03:42:36;;;;;;;0.38;0.38;;;12.50;99.90;;;;;;5053606;28;20078;-83
2021/12/04 03:45:05;;;;;;;0.00;0.00;;;12.50;99.90;;;;;;5052538;28;20063;-84
2021/12/04 03:47:31;;;;;;;0.65;0.55;;;12.50;99.90;;;;;;5053252;28;20020;-82
2021/12/04 03:49:56;;;;;;;0.00;0.00;;;12.40;99.90;;;;;;5052644;28;20025;-82
2021/12/04 03:52:22;;;;;;;0.20;0.20;;;12.50;99.90;;;;;;5051642;28;20033;-83
2021/12/04 03:54:48;;;;;;;0.70;0.70;;;12.40;99.90;;;;;;5052794;28;20507;-82
2021/12/04 03:57:14;;;;;;;0.00;0.00;;;12.50;99.90;;;;;;5052932;28;20025;-83
2021/12/04 03:59:45;;;;;;;0.38;0.38;;;12.50;99.90;;;;;;5053110;28;20388;-82
2021/12/04 04:02:13;;;;;;;0.10;0.10;;;12.60;99.90;;;;;;5051969;28;20021;-83
2021/12/04 04:04:39;;;;;;;1.17;1.08;;;12.70;99.90;;;;;;5052637;28;20021;-81
2021/12/04 04:07:06;;;;;;;0.95;0.95;;;12.80;99.90;;;;;;5052668;28;20452;-82
2021/12/04 04:09:33;;;;;;;0.00;0.00;;;12.80;99.90;;;;;;5052548;28;20067;-81
2021/12/04 04:11:59;;;;;;;0.00;0.00;;;12.80;99.90;;;;;;5050690;28;20484;-83
2021/12/04 04:14:26;;;;;;;0.00;0.00;;;12.90;99.90;;;;;;5052775;28;20506;-82
2021/12/04 04:16:54;;;;;;;0.00;0.00;;;12.90;99.90;;;;;;5056398;28;20480;-82
2021/12/04 04:19:21;;;;;;;0.05;0.05;;;12.90;99.90;;;;;;5056894;28;20021;-83
2021/12/04 04:21:47;;;;;;;0.00;0.00;;;12.90;99.90;;;;;;5056748;28;20032;-81
2021/12/04 04:24:17;;;;;;;1.17;1.08;;;12.90;99.90;;;;;;5056777;28;20029;-83
2021/12/04 04:26:45;;;;;;;0.22;0.08;;;12.80;99.90;;;;;;5056913;28;20083;-80
2021/12/04 04:29:12;;;;;;;0.00;0.00;;;12.80;99.90;;;;;;5057362;28;20021;-80
2021/12/04 04:31:45;;;;;;;0.00;0.00;;;12.80;99.90;;;;;;5053080;28;20065;-80
2021/12/04 04:34:11;;;;;;;;;;;12.80;99.90;;;;;;5037779;28;20492;-80
2021/12/04 05:11:56;;;;;;;0.60;0.47;;;12.60;99.90;;;;;;5056981;28;20040;-80
2021/12/04 05:14:23;;;;;;;0.00;0.00;;;12.60;99.90;;;;;;5056527;28;20445;-80
2021/12/04 05:16:52;;;;;;;3.67;2.28;;;12.70;99.90;;;;;;5055825;28;20029;-80
2021/12/04 05:19:38;;;;;;;24.23;0.60;;;12.70;99.90;;;;;;5056059;28;20055;-80
2021/12/04 05:22:05;;;;;;;0.17;0.17;;;12.60;99.90;;;;;;5056360;28;20028;-80
2021/12/04 05:24:31;;;;;;;0.50;0.50;;;12.70;99.90;;;;;;5056596;28;20021;-80
2021/12/04 05:26:57;;;;;;;0.25;0.25;;;12.70;99.90;;;;;;5055537;28;20055;-83
2021/12/04 05:29:22;;;;;;;0.40;0.40;;;12.70;99.90;;;;;;5056694;28;20470;-80
2021/12/04 05:31:48;;;;;;;0.35;0.25;;;12.70;99.90;;;;;;5056074;28;20056;-81
2021/12/04 05:34:14;;;;;;;9.10;2.13;;;12.60;99.90;;;;;;5055480;28;20369;-80
2021/12/04 05:36:40;;;;;;;2.17;1.35;;;12.60;99.90;;;;;;5055777;28;20028;-80
2021/12/04 05:39:06;;;;;;;0.10;0.10;;;12.60;99.90;;;;;;5056514;28;20468;-81
2021/12/04 05:41:32;;;;;;;0.10;0.08;;;12.60;99.90;;;;;;5056593;28;20518;-80
2021/12/04 05:44:03;;;;;;;0.00;0.00;;;12.50;99.90;;;;;;5055890;28;20104;-80
2021/12/04 05:46:35;;;;;;;2.00;0.82;;;12.50;99.90;;;;;;5055990;28;20032;-80
2021/12/04 05:49:05;;;;;;;0.08;0.08;;;12.40;99.90;;;;;;5055593;28;20032;-79
2021/12/04 05:54:06;;;;;;;0.00;0.00;;;12.20;99.90;;;;;;5055907;28;20533;-80
2021/12/04 05:56:33;;;;;;;0.00;0.00;;;12.10;99.90;;;;;;5056896;28;20024;-80
2021/12/04 05:59:00;;;;;;;0.10;0.08;;;12.00;99.90;;;;;;5054379;28;20024;-81
2021/12/04 06:01:27;;;;;;;12.93;0.70;;;12.00;99.90;;;;;;5054810;28;20047;-80
2021/12/04 06:03:53;;;;;;;0.08;0.08;;;11.90;99.90;;;;;;5054958;28;20017;-80
2021/12/04 06:06:19;;;;;;;0.13;0.13;;;11.90;99.90;;;;;;5055728;28;20025;-80
2021/12/04 06:08:46;;;;;;;0.00;0.00;;;11.80;99.90;;;;;;5047042;28;20021;-80
2021/12/04 06:11:12;;;;;;;0.10;0.10;;;11.80;99.90;;;;;;5037272;28;20442;-82
2021/12/04 06:13:38;;;;;;;0.90;0.05;;;11.80;99.90;;;;;;5035551;28;20025;-80
2021/12/04 06:16:04;;;;;;;0.90;0.90;;;11.70;99.90;;;;;;5035482;28;20495;-81
2021/12/04 06:18:32;;;;;;;0.43;0.43;;;11.60;99.90;;;;;;5035512;28;20017;-80
2021/12/04 06:23:42;;;;;;;0.20;0.20;;;11.50;99.90;;;;;;5035743;28;20032;-80
2021/12/04 06:26:09;;;;;;;1.08;0.47;;;11.40;99.90;;;;;;5035042;28;20128;-80
2021/12/04 06:28:35;;;;;;;0.00;0.00;;;11.40;99.90;;;;;;5036508;28;20021;-80
2021/12/04 06:31:01;;;;;;;0.00;0.00;;;11.40;99.90;;;;;;5035745;28;20063;-80
2021/12/04 06:33:27;;;;;;;1.05;0.95;;;11.40;99.90;;;;;;5035360;28;20455;-80
2021/12/04 06:35:53;;;;;;;0.28;0.28;;;11.40;99.90;;;;;;5042638;28;20032;-80
2021/12/04 06:38:19;;;;;;;0.10;0.10;;;11.30;99.90;;;;;;5055309;28;20033;-79
2021/12/04 06:40:46;;;;;;;2.05;1.33;;;11.30;99.90;;;;;;5054328;28;20056;-80
2021/12/04 06:43:13;;;;;;;0.70;0.70;;;11.30;99.90;;;;;;5057082;28;20467;-80
2021/12/04 06:45:42;;;;;;;1.98;1.35;;;11.20;99.90;;;;;;5055587;28;20021;-80
2021/12/04 06:48:15;;;;;;;1.15;0.98;;;11.20;99.90;;;;;;5054791;28;20032;-80
2021/12/04 06:50:53;;;;;;;24.33;3.25;;;11.20;99.90;;;;;;5054136;28;20155;-80
2021/12/04 06:55:50;;;;;;;0.17;0.17;;;11.10;99.90;;;;;;5055660;28;20392;-80
2021/12/04 06:58:16;;;;;;;2.65;1.75;;;11.10;99.90;;;;;;5055215;28;20028;-80
2021/12/04 07:00:42;;;;;;;1.83;0.93;;;11.00;99.90;;;;;;5054719;28;20017;-80
2021/12/04 07:03:08;;;;;;;2.05;1.65;;;11.00;99.90;;;;;;5053592;28;20048;-80
2021/12/04 07:05:34;;;;;;;0.00;0.00;;;11.00;99.90;;;;;;5054869;28;20029;-80
2021/12/04 07:07:59;;;;;;;0.00;0.00;;;11.00;99.90;;;;;;5051419;28;20017;-81
2021/12/04 07:10:25;;;;;;;0.00;0.00;;;10.90;99.90;;;;;;5034928;28;20022;-80
2021/12/04 07:12:51;;;;;;;1.75;1.08;;;11.00;99.90;;;;;;5033854;28;20018;-80
2021/12/04 07:15:17;;;;;;;1.85;0.32;;;11.00;99.90;;;;;;5035341;28;20036;-80
2021/12/04 07:17:43;;;;;;;0.00;0.00;;;10.90;99.90;;;;;;5034029;28;20395;-80
2021/12/04 07:20:09;;;;;;;1.60;1.50;;;11.00;99.90;;;;;;5035280;28;20029;-80
2021/12/04 07:22:35;;;;;;;2.58;2.15;;;10.90;99.90;;;;;;5035098;28;20017;-80
2021/12/04 07:25:03;;;;;;;0.28;0.28;;;10.90;99.90;;;;;;5036015;28;20078;-80
2021/12/04 07:27:29;;;;;;;2.25;1.27;;;10.90;99.90;;;;;;5035893;28;20056;-80
2021/12/04 07:29:56;;;;;;;0.00;0.00;;;10.90;99.90;;;;;;5034488;28;20037;-80
2021/12/04 07:32:22;;;;;;;0.20;0.20;;;10.90;99.90;;;;;;5033441;28;20064;-80
2021/12/04 07:34:48;;;;;;;0.20;0.20;;;10.90;99.90;;;;;;5034424;28;20025;-80
2021/12/04 07:37:14;;;;;;;0.03;0.03;;;10.90;99.90;;;;;;5034439;28;20091;-80
2021/12/04 07:39:39;;;;;;;0.73;0.65;;;10.80;99.90;;;;;;5034043;28;20079;-80
2021/12/04 07:42:05;;;;;;;0.85;0.85;;;10.80;99.90;;;;;;5034746;28;20025;-81
2021/12/04 07:44:31;;;;;;;2.28;0.85;;;10.80;99.90;;;;;;5034142;28;20484;-80
2021/12/04 07:46:57;;;;;;;4.38;0.65;;;10.80;99.90;;;;;;5032694;28;20061;-81
2021/12/04 07:49:23;;;;;;;2.65;1.27;;;10.80;99.90;;;;;;5033907;28;20029;-81
2021/12/04 07:51:50;;;;;;;5.18;1.33;;;10.80;99.90;;;;;;5033382;28;20546;-81
2021/12/04 07:54:16;;;;;;;0.60;0.60;;;10.80;99.90;;;;;;5033177;28;20062;-81
2021/12/04 07:56:42;;;;;;;0.10;0.10;;;10.80;99.90;;;;;;5031544;28;20366;-81
2021/12/04 07:59:08;;;;;;;6.07;1.20;;;10.80;99.90;;;;;;5046545;28;20089;-81
2021/12/04 08:01:33;;;;;;;10.65;1.48;;;10.80;99.90;;;;;;5052621;28;20103;-81
2021/12/04 08:03:59;;;;;;;0.55;0.55;;;10.80;99.90;;;;;;5051862;28;20040;-81
2021/12/04 08:06:25;;;;;;;0.88;0.88;;;10.80;99.90;;;;;;5050332;28;20158;-80
2021/12/04 08:08:58;;;;;;;0.57;0.47;;;10.80;99.90;;;;;;5052404;28;20032;-82
2021/12/04 08:11:25;;;;;;;1.20;1.13;;;10.90;99.90;;;;;;5052808;28;20021;-82
2021/12/04 08:13:51;;;;;;;0.10;0.10;;;10.90;99.90;;;;;;5052392;28;20052;-81
2021/12/04 08:16:18;;;;;;;1.63;1.08;;;10.90;99.90;;;;;;5053355;28;20102;-81
2021/12/04 08:18:44;;;;;;;0.93;0.93;;;10.90;99.90;;;;;;5052493;28;20536;-81
2021/12/04 08:21:11;;;;;;;0.10;0.10;;;10.90;99.90;;;;;;5053909;28;20065;-82
2021/12/04 08:23:36;;;;;;;1.67;0.60;;;10.90;99.90;;;;;;5053959;28;20491;-81
2021/12/04 08:26:02;;;;;;;0.00;0.00;;;10.90;99.90;;;;;;5053160;28;20149;-80
2021/12/04 08:28:28;;;;;;;0.55;0.55;;;10.80;99.90;;;;;;5052337;28;20495;-80
2021/12/04 08:30:54;;;;;;;0.85;0.22;;;10.80;99.90;;;;;;5052932;28;20025;-81
2021/12/04 08:33:20;;;;;;;2.42;1.77;;;10.80;99.90;;;;;;5052695;28;20021;-80
2021/12/04 08:35:45;;;;;;;0.15;0.15;;;10.90;99.90;;;;;;5053686;28;20033;-80
2021/12/04 08:38:13;;;;;;;0.20;0.20;;;11.00;99.90;;;;;;5052542;28;20369;-81
2021/12/04 08:40:41;;;;;;;0.50;0.45;;;11.00;99.90;;;;;;5052266;28;20109;-81
2021/12/04 08:43:08;;;;;;;0.05;0.05;;;11.10;99.90;;;;;;5052995;28;20021;-81
2021/12/04 08:45:34;;;;;;;0.40;0.40;;;11.10;99.90;;;;;;5053321;28;20021;-81
2021/12/04 08:48:00;;;;;;;1.38;0.75;;;11.10;99.90;;;;;;5052979;28;20021;-81
2021/12/04 08:50:29;;;;;;;0.00;0.00;;;11.00;99.90;;;;;;5053352;28;20450;-82
2021/12/04 08:52:55;;;;;;;0.00;0.00;;;11.10;99.90;;;;;;5052655;28;20052;-81
2021/12/04 08:55:23;;;;;;;0.00;0.00;;;11.10;99.90;;;;;;5052673;28;20108;-82
2021/12/04 08:57:49;;;;;;;8.30;0.82;;;11.30;99.90;;;;;;5052218;28;20460;-80
2021/12/04 09:00:21;;;;;;;5.75;0.90;;;11.30;99.90;;;;;;5052188;28;20480;-81
2021/12/04 09:02:47;;;;;;;0.10;0.10;;;11.40;99.90;;;;;;5055265;28;20067;-81
2021/12/04 09:05:14;;;;;;;2.08;1.35;;;11.50;99.90;;;;;;5054843;28;20389;-81
2021/12/04 09:07:39;;;;;;;0.00;0.00;;;11.40;99.90;;;;;;5056403;28;20021;-81
2021/12/04 09:10:06;;;;;;;0.85;0.85;;;11.40;99.90;;;;;;5036879;28;20538;-82
2021/12/04 09:12:33;;;;;;;0.47;0.47;;;11.50;99.90;;;;;;5035914;28;20025;-81
2021/12/04 09:15:00;;;;;;;14.05;1.45;;;11.50;99.90;;;;;;5036198;28;20034;-82
2021/12/04 09:17:26;;;;;;;0.05;0.05;;;11.60;99.90;;;;;;5068472;28;20033;-82
2021/12/04 09:19:52;;;;;;;0.00;0.00;;;11.60;99.90;;;;;;5067837;28;20026;-81
2021/12/04 09:22:27;;;;;;;0.80;0.80;;;11.60;99.90;;;;;;5035983;28;20029;-81
2021/12/04 09:24:58;;;;;;;4.95;1.88;;;11.70;99.90;;;;;;5039395;28;20028;-80
2021/12/04 09:30:19;;;;;;;0.00;0.00;;;11.60;99.90;;;;;;5058078;28;20032;-81
2021/12/04 10:13:36;;;;;;;3.72;1.00;;;12.00;99.90;;;;;;5055201;28;20083;-80
2021/12/04 10:21:43;;;;;;;0.00;0.00;;;12.10;99.90;;;;;;5058748;28;20514;-81
2021/12/04 10:32:42;;;;;;;1.55;1.00;;;12.40;99.90;;;;;;5058737;28;20142;-81
2021/12/04 10:35:19;;;;;;;4.07;0.57;;;12.40;99.90;;;;;;5056615;28;20017;-81
2021/12/04 10:37:51;;;;;;;0.00;0.00;;;12.30;99.90;;;;;;5057139;28;20111;-80
2021/12/04 10:40:19;;;;;;;0.88;0.47;;;12.50;99.90;;;;;;5056426;28;20036;-81
2021/12/04 10:42:56;;;;;;;1.58;0.25;;;12.80;99.90;;;;;;5056546;28;20021;-81
2021/12/04 10:45:33;;;;;;;0.77;0.77;;;13.10;99.90;;;;;;5056586;28;20024;-81
2021/12/04 10:48:02;;;;;;;13.13;2.28;;;12.50;99.90;;;;;;5057117;28;20033;-81
2021/12/04 10:53:31;;;;;;;0.00;0.00;;;11.50;99.90;;;;;;5055624;28;20552;-80
2021/12/04 11:03:55;;;;;;;1.77;0.98;;;12.10;99.90;;;;;;5058539;28;20025;-80
2021/12/04 11:06:42;;;;;;;3.97;1.38;;;12.30;99.90;;;;;;5057263;28;20868;-80
2021/12/04 11:37:11;;;;;;;0.00;0.00;;;11.60;99.90;;;;;;5055770;28;20065;-80
2021/12/04 11:39:53;;;;;;;0.00;0.00;;;11.70;99.90;;;;;;5056820;28;20025;-80
2021/12/04 11:45:22;;;;;;;6.78;1.45;;;12.00;99.90;;;;;;5057080;28;20408;-80
2021/12/04 11:47:54;;;;;;;0.55;0.10;;;12.30;99.90;;;;;;5042130;28;20065;-81
2021/12/04 11:50:24;;;;;;;0.00;0.00;;;12.30;99.90;;;;;;5036427;28;20029;-80
2021/12/04 11:52:58;;;;;;;0.00;0.00;;;12.10;99.90;;;;;;5034840;28;20025;-80
2021/12/04 11:55:28;;;;;;;0.00;0.00;;;12.00;99.90;;;;;;5035154;28;20025;-81
2021/12/04 11:57:54;;;;;;;0.00;0.00;;;11.90;99.90;;;;;;5037921;28;20032;-80
2021/12/04 12:00:27;;;;;;;9.95;0.65;;;11.90;99.90;;;;;;5057604;28;20067;-81
2021/12/04 12:03:07;;;;;;;1.38;0.85;;;11.90;99.90;;;;;;5056700;28;20043;-81
2021/12/04 12:05:44;;;;;;;0.47;0.47;;;11.90;99.90;;;;;;5055899;28;20112;-80
2021/12/04 12:08:36;;;;;;;0.10;0.10;;;11.80;99.90;;;;;;5051849;28;20025;-81
2021/12/04 12:11:08;;;;;;;0.03;0.03;;;11.90;99.90;;;;;;5054626;28;20028;-81
2021/12/04 12:13:38;;;;;;;0.00;0.00;;;12.10;99.90;;;;;;5055520;28;20029;-80
2021/12/04 12:16:10;;;;;;;0.00;0.00;;;12.20;99.90;;;;;;5055302;28;20025;-80
2021/12/04 12:19:03;;;;;;;0.00;0.00;;;12.20;99.90;;;;;;5054221;28;20021;-81
2021/12/04 12:21:52;;;;;;;4.60;0.22;;;12.00;99.90;;;;;;5054732;28;20494;-81
2021/12/04 12:27:31;;;;;;;0.20;0.20;;;11.80;99.90;;;;;;5054267;28;20052;-81
2021/12/04 12:36:09;;;;;;;0.40;0.40;;;12.00;99.90;;;;;;5054663;28;20060;-81
2021/12/04 12:38:47;;;;;;;2.28;1.45;;;12.00;99.90;;;;;;5059242;28;20047;-81
2021/12/04 12:41:20;;;;;;;0.00;0.00;;;12.00;99.90;;;;;;5059257;28;20567;-80
2021/12/04 12:43:49;;;;;;;0.00;0.00;;;11.90;99.90;;;;;;5059414;28;20021;-81
2021/12/04 12:46:15;;;;;;;0.00;0.00;;;12.00;99.90;;;;;;5058977;28;20040;-80
2021/12/04 12:48:48;;;;;;;1.65;0.52;;;12.10;99.90;;;;;;5039392;28;20077;-80
2021/12/04 12:51:14;;;;;;;;;;;11.90;99.90;;;;;;5039095;28;20022;-80
2021/12/04 12:53:45;;;;;;;1.45;1.35;;;11.80;99.90;;;;;;5039699;28;19905;-80
2021/12/04 12:56:13;;;;;;;0.00;0.00;;;11.90;99.90;;;;;;5038424;28;20041;-81
2021/12/04 12:58:50;;;;;;;0.00;0.00;;;12.00;99.90;;;;;;5047160;28;20019;-83
2021/12/04 13:13:38;;;;;;;8.88;1.98;;;11.90;99.90;;;;;;5036974;28;20085;-82
2021/12/04 13:16:14;;;;;;;0.82;0.82;;;12.30;99.90;;;;;;5056062;28;20118;-81
2021/12/04 13:18:40;;;;;;;0.47;0.32;;;12.60;99.90;;;;;;5057847;28;20029;-81
2021/12/04 13:21:09;;;;;;;0.00;0.00;;;13.30;99.90;;;;;;5057914;28;20031;-81
2021/12/04 13:23:36;;;;;;;0.80;0.32;;;14.10;99.90;;;;;;5057649;28;20058;-81
2021/12/04 13:26:10;;;;;;;0.00;0.00;;;13.80;99.90;;;;;;5058854;28;20445;-80
2021/12/04 13:28:38;;;;;;;0.10;0.10;;;12.90;99.90;;;;;;5058303;28;20017;-81
2021/12/04 13:31:05;;;;;;;0.47;0.43;;;12.40;99.90;;;;;;5056232;28;20029;-80
2021/12/04 13:33:33;;;;;;;7.47;1.08;;;11.60;99.90;;;;;;5058074;28;20408;-80
2021/12/04 13:35:59;;;;;;;0.13;0.13;;;10.90;99.90;;;;;;5058360;28;20403;-80
2021/12/04 13:38:26;;;;;;;3.30;1.10;;;10.70;99.90;;;;;;5056511;28;20033;-81
2021/12/04 13:40:54;;;;;;;0.00;0.00;;;11.10;99.90;;;;;;5058496;28;20017;-81
2021/12/04 13:43:21;;;;;;;0.00;0.00;;;11.40;99.90;;;;;;5058073;28;20024;-81
2021/12/04 13:45:58;;;;;;;0.00;0.00;;;11.60;99.90;;;;;;5057896;28;20028;-81
2021/12/04 13:48:24;;;;;;;1.70;0.98;;;11.80;99.90;;;;;;5038749;28;20033;-81
2021/12/04 13:50:50;;;;;;;3.10;1.35;;;12.00;99.90;;;;;;5038995;28;20030;-81
2021/12/04 13:53:32;;;;;;;0.00;0.00;;;12.10;99.90;;;;;;5037746;28;20033;-81
2021/12/04 13:56:10;;;;;;;0.20;0.20;;;12.10;99.90;;;;;;5038609;28;20025;-81
2021/12/04 13:58:59;;;;;;;0.75;0.75;;;12.20;99.90;;;;;;5045707;28;20028;-81
2021/12/04 14:01:27;;;;;;;0.00;0.00;;;12.20;99.90;;;;;;5058499;28;20021;-80
2021/12/04 14:04:01;;;;;;;1.65;0.30;;;12.20;99.90;;;;;;5058657;28;20486;-81
2021/12/04 14:06:27;;;;;;;1.35;0.70;;;12.20;99.90;;;;;;5057871;28;20025;-81
2021/12/04 14:09:06;;;;;;;0.55;0.52;;;12.20;99.90;;;;;;5054638;28;20029;-81
2021/12/04 14:11:38;;;;;;;13.38;0.35;;;12.20;99.90;;;;;;5058994;28;20050;-81
2021/12/04 14:14:19;;;;;;;0.25;0.25;;;12.20;99.90;;;;;;5060411;28;20476;-81
2021/12/04 14:16:50;;;;;;;0.25;0.20;;;12.30;99.90;;;;;;5060745;28;20029;-81
2021/12/04 14:19:29;;;;;;;0.20;0.20;;;12.30;99.90;;;;;;5060223;28;20077;-81
2021/12/04 14:22:04;;;;;;;0.40;0.40;;;12.40;99.90;;;;;;5058492;28;20108;-81
2021/12/04 14:24:41;;;;;;;0.20;0.20;;;12.40;99.90;;;;;;5057616;28;20044;-81
2021/12/04 14:27:07;;;;;;;0.08;0.08;;;12.40;99.90;;;;;;5038035;28;20052;-81
2021/12/04 14:29:41;;;;;;;0.00;0.00;;;12.30;99.90;;;;;;5039378;28;20586;-81
2021/12/04 14:32:09;;;;;;;0.00;0.00;;;12.20;99.90;;;;;;5038287;28;20053;-81
2021/12/04 14:34:35;;;;;;;0.00;0.00;;;12.10;99.90;;;;;;5038416;28;20033;-81
2021/12/04 14:37:14;;;;;;;0.00;0.00;;;12.20;99.90;;;;;;5039004;28;20036;-82
2021/12/04 14:39:42;;;;;;;0.20;0.20;;;12.20;99.90;;;;;;5036560;28;20013;-81
2021/12/04 14:42:22;;;;;;;0.00;0.00;;;12.00;99.90;;;;;;5035770;28;20405;-81
2021/12/04 14:44:57;;;;;;;0.30;0.30;;;11.90;99.90;;;;;;5039126;28;20039;-82
2021/12/04 14:47:29;;;;;;;0.00;0.00;;;11.90;99.90;;;;;;5048725;28;20080;-81
2021/12/04 14:50:00;;;;;;;5.05;1.35;;;11.90;99.90;;;;;;5057929;28;20044;-81
2021/12/04 14:52:29;;;;;;;0.13;0.10;;;12.00;99.90;;;;;;5058772;28;20025;-82
2021/12/04 14:54:54;;;;;;;0.17;0.17;;;12.00;99.90;;;;;;5057402;28;20547;-81
2021/12/04 14:57:27;;;;;;;0.25;0.25;;;11.90;99.90;;;;;;5057054;28;20052;-81
2021/12/04 15:00:08;;;;;;;0.10;0.10;;;11.80;99.90;;;;;;5058525;28;20100;-81
2021/12/04 15:02:35;;;;;;;0.00;0.00;;;11.90;99.90;;;;;;5059222;28;20021;-81
2021/12/04 15:05:03;;;;;;;0.13;0.13;;;11.60;99.90;;;;;;5058021;28;20079;-81
2021/12/04 15:07:32;;;;;;;0.00;0.00;;;11.50;99.90;;;;;;5057019;28;20095;-81
2021/12/04 15:10:04;;;;;;;0.00;0.00;;;11.90;99.90;;;;;;5056463;28;20037;-81
2021/12/04 15:12:34;;;;;;;0.00;0.00;;;12.10;99.90;;;;;;5059421;28;20035;-81
2021/12/04 15:15:08;;;;;;;0.10;0.10;;;12.10;99.90;;;;;;5059106;28;20120;-81
2021/12/04 15:17:35;;;;;;;0.00;0.00;;;11.50;99.90;;;;;;5057236;28;20172;-81
2021/12/04 15:20:10;;;;;;;0.00;0.00;;;11.00;99.90;;;;;;5056394;28;20074;-81
2021/12/04 15:22:42;;;;;;;1.92;0.47;;;10.70;99.90;;;;;;5058177;28;20023;-81
2021/12/04 15:25:15;;;;;;;0.00;0.00;;;10.60;99.90;;;;;;5058169;28;20024;-81
2021/12/04 15:27:43;;;;;;;0.38;0.38;;;10.50;99.90;;;;;;5060617;28;20053;-81
2021/12/04 15:30:14;;;;;;;0.00;0.00;;;10.60;99.90;;;;;;5059342;28;20439;-81
2021/12/04 15:32:42;;;;;;;0.95;0.45;;;10.60;99.90;;;;;;5058509;28;20024;-81
2021/12/04 15:35:27;;;;;;;0.00;0.00;;;10.50;99.90;;;;;;5055431;28;20051;-80
2021/12/04 15:38:03;;;;;;;0.00;0.00;;;10.40;99.90;;;;;;5055142;28;20017;-80
2021/12/04 15:40:39;;;;;;;1.95;1.13;;;10.20;99.90;;;;;;5054365;28;20031;-81
2021/12/04 15:43:22;;;;;;;0.75;0.52;;;9.60;99.90;;;;;;5053117;28;20060;-82
2021/12/04 15:48:53;;;;;;;0.03;0.03;;;9.00;99.90;;;;;;5053611;28;20047;-81
2021/12/04 15:52:47;;;;;;;0.00;0.00;;;8.80;99.90;;;;;;5052964;28;20021;-81
2021/12/04 15:54:22;;;;;;;0.55;0.50;;;8.70;99.90;;;;;;5053068;28;20037;-81
2021/12/04 15:56:53;;;;;;;0.00;0.00;;;8.80;99.90;;;;;;5053363;28;20032;-82
2021/12/04 15:59:19;;;;;;;0.00;0.00;;;8.80;99.90;;;;;;5053939;28;20021;-82
2021/12/04 16:01:46;;;;;;;0.00;0.00;;;8.90;99.90;;;;;;5053709;28;20074;-81
2021/12/04 16:04:32;;;;;;;0.00;0.00;;;9.00;99.90;;;;;;5053530;28;20104;-81
2021/12/04 16:07:01;;;;;;;0.20;0.20;;;9.10;99.90;;;;;;5053271;28;20399;-83
2021/12/04 16:09:38;;;;;;;0.00;0.00;;;9.10;99.90;;;;;;5052034;28;20033;-81